sensor_id;sensor_type;location;lat;lon;timestamp;temperature;humidity
19588;DHT22;9940;47.252;8.696;2023-02-28T00:00:51;2.20;81.50
19588;DHT22;9940;47.252;8.696;2023-02-28T00:03:17;2.20;81.50
19588;DHT22;9940;47.252;8.696;2023-02-28T00:05:43;2.20;81.50
19588;DHT22;9940;47.252;8.696;2023-02-28T00:08:09;2.20;81.50
19588;DHT22;9940;47.252;8.696;2023-02-28T00:10:34;2.20;81.60
19588;DHT22;9940;47.252;8.696;2023-02-28T00:13:04;2.20;81.60
19588;DHT22;9940;47.252;8.696;2023-02-28T00:15:30;2.10;81.70
19588;DHT22;9940;47.252;8.696;2023-02-28T00:18:01;2.20;81.80
19588;DHT22;9940;47.252;8.696;2023-02-28T00:20:27;2.20;81.90
19588;DHT22;9940;47.252;8.696;2023-02-28T00:22:54;2.20;81.80
19588;DHT22;9940;47.252;8.696;2023-02-28T00:25:24;2.20;81.80
19588;DHT22;9940;47.252;8.696;2023-02-28T00:27:50;2.20;81.90
19588;DHT22;9940;47.252;8.696;2023-02-28T00:30:20;2.20;81.90
19588;DHT22;9940;47.252;8.696;2023-02-28T00:32:50;2.20;81.90
19588;DHT22;9940;47.252;8.696;2023-02-28T00:35:18;2.10;81.90
19588;DHT22;9940;47.252;8.696;2023-02-28T00:37:44;2.10;82.00
19588;DHT22;9940;47.252;8.696;2023-02-28T00:40:10;2.10;82.00
19588;DHT22;9940;47.252;8.696;2023-02-28T00:42:37;2.20;82.10
19588;DHT22;9940;47.252;8.696;2023-02-28T00:45:04;2.20;82.10
19588;DHT22;9940;47.252;8.696;2023-02-28T00:47:31;2.20;82.10
19588;DHT22;9940;47.252;8.696;2023-02-28T00:49:56;2.10;82.20
19588;DHT22;9940;47.252;8.696;2023-02-28T00:52:22;2.10;82.20
19588;DHT22;9940;47.252;8.696;2023-02-28T00:54:48;2.20;82.30
19588;DHT22;9940;47.252;8.696;2023-02-28T00:57:13;2.20;82.30
19588;DHT22;9940;47.252;8.696;2023-02-28T00:59:39;2.20;82.40
19588;DHT22;9940;47.252;8.696;2023-02-28T01:02:07;2.20;82.40
19588;DHT22;9940;47.252;8.696;2023-02-28T01:04:33;2.10;82.40
19588;DHT22;9940;47.252;8.696;2023-02-28T01:06:59;2.20;82.50
19588;DHT22;9940;47.252;8.696;2023-02-28T01:09:27;2.20;82.50
19588;DHT22;9940;47.252;8.696;2023-02-28T01:11:55;2.20;82.60
19588;DHT22;9940;47.252;8.696;2023-02-28T01:14:21;2.20;82.60
19588;DHT22;9940;47.252;8.696;2023-02-28T01:16:46;2.20;82.70
19588;DHT22;9940;47.252;8.696;2023-02-28T01:19:16;2.20;83.50
19588;DHT22;9940;47.252;8.696;2023-02-28T01:21:42;2.20;82.80
19588;DHT22;9940;47.252;8.696;2023-02-28T01:24:08;2.20;82.80
19588;DHT22;9940;47.252;8.696;2023-02-28T01:26:33;2.20;82.80
19588;DHT22;9940;47.252;8.696;2023-02-28T01:28:59;2.20;82.90
19588;DHT22;9940;47.252;8.696;2023-02-28T01:31:25;2.20;82.90
19588;DHT22;9940;47.252;8.696;2023-02-28T01:33:52;2.20;83.00
19588;DHT22;9940;47.252;8.696;2023-02-28T01:36:21;2.20;83.10
19588;DHT22;9940;47.252;8.696;2023-02-28T01:38:48;2.20;83.10
19588;DHT22;9940;47.252;8.696;2023-02-28T01:41:33;2.20;83.90
19588;DHT22;9940;47.252;8.696;2023-02-28T01:47:02;2.20;83.10
19588;DHT22;9940;47.252;8.696;2023-02-28T01:49:28;2.20;83.00
19588;DHT22;9940;47.252;8.696;2023-02-28T01:51:56;2.20;82.90
19588;DHT22;9940;47.252;8.696;2023-02-28T01:54:31;2.20;82.90
19588;DHT22;9940;47.252;8.696;2023-02-28T01:57:03;2.20;83.00
19588;DHT22;9940;47.252;8.696;2023-02-28T01:59:38;2.20;83.10
19588;DHT22;9940;47.252;8.696;2023-02-28T02:02:14;2.20;83.10
19588;DHT22;9940;47.252;8.696;2023-02-28T02:04:55;2.20;83.10
19588;DHT22;9940;47.252;8.696;2023-02-28T02:07:23;2.20;83.10
19588;DHT22;9940;47.252;8.696;2023-02-28T02:09:56;2.20;83.20
19588;DHT22;9940;47.252;8.696;2023-02-28T02:17:46;2.10;83.40
19588;DHT22;9940;47.252;8.696;2023-02-28T02:37:35;2.20;83.30
19588;DHT22;9940;47.252;8.696;2023-02-28T02:40:23;2.20;83.30
19588;DHT22;9940;47.252;8.696;2023-02-28T02:45:38;2.20;83.60
19588;DHT22;9940;47.252;8.696;2023-02-28T02:48:08;2.10;83.70
19588;DHT22;9940;47.252;8.696;2023-02-28T02:50:41;2.10;83.80
19588;DHT22;9940;47.252;8.696;2023-02-28T02:53:09;2.10;84.00
19588;DHT22;9940;47.252;8.696;2023-02-28T02:55:39;2.10;84.10
19588;DHT22;9940;47.252;8.696;2023-02-28T02:58:10;2.10;84.10
19588;DHT22;9940;47.252;8.696;2023-02-28T03:00:48;2.10;84.20
19588;DHT22;9940;47.252;8.696;2023-02-28T03:03:18;2.10;84.30
19588;DHT22;9940;47.252;8.696;2023-02-28T03:05:58;2.10;84.30
19588;DHT22;9940;47.252;8.696;2023-02-28T03:08:23;2.10;84.40
19588;DHT22;9940;47.252;8.696;2023-02-28T03:10:56;2.10;84.40
19588;DHT22;9940;47.252;8.696;2023-02-28T03:27:45;2.10;84.50
19588;DHT22;9940;47.252;8.696;2023-02-28T03:33:06;2.10;84.50
19588;DHT22;9940;47.252;8.696;2023-02-28T03:35:39;2.10;84.60
19588;DHT22;9940;47.252;8.696;2023-02-28T03:38:15;2.10;84.70
19588;DHT22;9940;47.252;8.696;2023-02-28T03:40:48;2.10;84.70
19588;DHT22;9940;47.252;8.696;2023-02-28T03:43:23;2.10;84.70
19588;DHT22;9940;47.252;8.696;2023-02-28T03:45:51;2.10;84.80
19588;DHT22;9940;47.252;8.696;2023-02-28T03:48:31;2.10;84.80
19588;DHT22;9940;47.252;8.696;2023-02-28T03:50:59;2.10;84.80
19588;DHT22;9940;47.252;8.696;2023-02-28T03:53:37;2.10;84.90
19588;DHT22;9940;47.252;8.696;2023-02-28T03:56:18;2.10;85.00
19588;DHT22;9940;47.252;8.696;2023-02-28T03:58:57;2.10;85.00
19588;DHT22;9940;47.252;8.696;2023-02-28T04:01:30;2.00;84.90
19588;DHT22;9940;47.252;8.696;2023-02-28T04:03:57;2.00;85.00
19588;DHT22;9940;47.252;8.696;2023-02-28T04:06:23;2.00;85.10
19588;DHT22;9940;47.252;8.696;2023-02-28T04:08:50;2.00;85.10
19588;DHT22;9940;47.252;8.696;2023-02-28T04:11:27;2.00;85.00
19588;DHT22;9940;47.252;8.696;2023-02-28T04:13:55;2.00;85.00
19588;DHT22;9940;47.252;8.696;2023-02-28T04:16:25;2.00;85.10
19588;DHT22;9940;47.252;8.696;2023-02-28T04:18:53;2.00;85.10
19588;DHT22;9940;47.252;8.696;2023-02-28T04:21:21;2.00;85.10
19588;DHT22;9940;47.252;8.696;2023-02-28T04:23:47;2.00;85.20
19588;DHT22;9940;47.252;8.696;2023-02-28T04:26:13;2.00;85.10
19588;DHT22;9940;47.252;8.696;2023-02-28T04:28:38;2.00;85.20
19588;DHT22;9940;47.252;8.696;2023-02-28T04:31:04;2.00;85.20
19588;DHT22;9940;47.252;8.696;2023-02-28T04:33:32;2.00;85.20
19588;DHT22;9940;47.252;8.696;2023-02-28T04:36:03;2.00;85.20
19588;DHT22;9940;47.252;8.696;2023-02-28T04:38:35;2.00;85.20
19588;DHT22;9940;47.252;8.696;2023-02-28T04:41:01;2.00;85.10
19588;DHT22;9940;47.252;8.696;2023-02-28T04:43:27;2.00;85.10
19588;DHT22;9940;47.252;8.696;2023-02-28T04:45:56;2.00;85.00
19588;DHT22;9940;47.252;8.696;2023-02-28T04:48:28;2.00;85.00
19588;DHT22;9940;47.252;8.696;2023-02-28T04:51:00;2.00;85.00
19588;DHT22;9940;47.252;8.696;2023-02-28T04:53:29;2.00;85.00
19588;DHT22;9940;47.252;8.696;2023-02-28T04:55:56;2.00;85.00
19588;DHT22;9940;47.252;8.696;2023-02-28T04:58:25;2.00;85.00
19588;DHT22;9940;47.252;8.696;2023-02-28T05:00:54;2.00;85.10
19588;DHT22;9940;47.252;8.696;2023-02-28T05:03:26;2.00;85.00
19588;DHT22;9940;47.252;8.696;2023-02-28T05:05:51;2.00;85.10
19588;DHT22;9940;47.252;8.696;2023-02-28T05:08:19;2.00;85.10
19588;DHT22;9940;47.252;8.696;2023-02-28T05:10:45;2.00;85.10
19588;DHT22;9940;47.252;8.696;2023-02-28T05:13:12;2.00;85.10
19588;DHT22;9940;47.252;8.696;2023-02-28T05:15:38;2.00;85.20
19588;DHT22;9940;47.252;8.696;2023-02-28T05:18:03;2.00;85.10
19588;DHT22;9940;47.252;8.696;2023-02-28T05:20:29;2.00;85.20
19588;DHT22;9940;47.252;8.696;2023-02-28T05:22:58;2.00;85.10
19588;DHT22;9940;47.252;8.696;2023-02-28T05:25:26;2.00;85.00
19588;DHT22;9940;47.252;8.696;2023-02-28T05:27:52;2.00;84.90
19588;DHT22;9940;47.252;8.696;2023-02-28T05:30:17;2.00;84.90
19588;DHT22;9940;47.252;8.696;2023-02-28T05:32:43;2.00;84.90
19588;DHT22;9940;47.252;8.696;2023-02-28T05:35:11;2.00;85.00
19588;DHT22;9940;47.252;8.696;2023-02-28T05:37:38;2.00;84.90
19588;DHT22;9940;47.252;8.696;2023-02-28T05:40:05;2.00;85.00
19588;DHT22;9940;47.252;8.696;2023-02-28T05:42:37;2.00;84.90
19588;DHT22;9940;47.252;8.696;2023-02-28T05:45:03;2.00;84.90
19588;DHT22;9940;47.252;8.696;2023-02-28T05:47:31;2.00;84.90
19588;DHT22;9940;47.252;8.696;2023-02-28T05:49:57;2.00;85.00
19588;DHT22;9940;47.252;8.696;2023-02-28T05:52:25;1.90;85.00
19588;DHT22;9940;47.252;8.696;2023-02-28T05:54:51;2.00;84.90
19588;DHT22;9940;47.252;8.696;2023-02-28T05:57:17;2.00;84.80
19588;DHT22;9940;47.252;8.696;2023-02-28T05:59:42;2.00;84.80
19588;DHT22;9940;47.252;8.696;2023-02-28T06:02:13;1.90;84.80
19588;DHT22;9940;47.252;8.696;2023-02-28T06:04:39;1.90;84.80
19588;DHT22;9940;47.252;8.696;2023-02-28T06:07:06;1.90;84.80
19588;DHT22;9940;47.252;8.696;2023-02-28T06:09:35;2.00;84.90
19588;DHT22;9940;47.252;8.696;2023-02-28T06:12:05;2.00;84.80
19588;DHT22;9940;47.252;8.696;2023-02-28T06:14:33;2.00;84.80
19588;DHT22;9940;47.252;8.696;2023-02-28T06:17:00;2.00;84.80
19588;DHT22;9940;47.252;8.696;2023-02-28T06:19:26;2.00;84.70
19588;DHT22;9940;47.252;8.696;2023-02-28T06:21:53;2.00;84.70
19588;DHT22;9940;47.252;8.696;2023-02-28T06:24:20;2.00;84.70
19588;DHT22;9940;47.252;8.696;2023-02-28T06:26:46;2.00;84.70
19588;DHT22;9940;47.252;8.696;2023-02-28T06:29:12;2.00;84.70
19588;DHT22;9940;47.252;8.696;2023-02-28T06:31:37;2.00;84.60
19588;DHT22;9940;47.252;8.696;2023-02-28T06:34:06;2.00;84.60
19588;DHT22;9940;47.252;8.696;2023-02-28T06:36:32;2.00;84.60
19588;DHT22;9940;47.252;8.696;2023-02-28T06:38:57;2.00;84.60
19588;DHT22;9940;47.252;8.696;2023-02-28T06:41:26;2.00;84.70
19588;DHT22;9940;47.252;8.696;2023-02-28T06:43:53;2.00;84.60
19588;DHT22;9940;47.252;8.696;2023-02-28T06:46:21;2.00;84.60
19588;DHT22;9940;47.252;8.696;2023-02-28T06:48:49;2.00;84.60
19588;DHT22;9940;47.252;8.696;2023-02-28T06:51:19;2.00;84.60
19588;DHT22;9940;47.252;8.696;2023-02-28T06:53:47;2.00;84.50
19588;DHT22;9940;47.252;8.696;2023-02-28T06:56:14;2.00;84.30
19588;DHT22;9940;47.252;8.696;2023-02-28T06:58:40;2.10;83.90
19588;DHT22;9940;47.252;8.696;2023-02-28T07:01:09;2.10;83.70
19588;DHT22;9940;47.252;8.696;2023-02-28T07:03:38;2.10;83.70
19588;DHT22;9940;47.252;8.696;2023-02-28T07:06:06;2.10;83.70
19588;DHT22;9940;47.252;8.696;2023-02-28T07:08:33;2.10;83.80
19588;DHT22;9940;47.252;8.696;2023-02-28T07:10:58;2.10;83.80
19588;DHT22;9940;47.252;8.696;2023-02-28T07:13:24;2.20;83.80
19588;DHT22;9940;47.252;8.696;2023-02-28T07:16:04;2.20;83.80
19588;DHT22;9940;47.252;8.696;2023-02-28T07:18:30;2.20;83.80
19588;DHT22;9940;47.252;8.696;2023-02-28T07:20:56;2.20;83.70
19588;DHT22;9940;47.252;8.696;2023-02-28T07:23:26;2.20;83.50
19588;DHT22;9940;47.252;8.696;2023-02-28T07:25:52;2.20;83.40
19588;DHT22;9940;47.252;8.696;2023-02-28T07:28:20;2.20;83.40
19588;DHT22;9940;47.252;8.696;2023-02-28T07:30:47;2.20;83.40
19588;DHT22;9940;47.252;8.696;2023-02-28T07:33:13;2.20;83.50
19588;DHT22;9940;47.252;8.696;2023-02-28T07:35:41;2.30;83.60
19588;DHT22;9940;47.252;8.696;2023-02-28T07:38:07;2.30;83.50
19588;DHT22;9940;47.252;8.696;2023-02-28T07:40:33;2.30;83.40
19588;DHT22;9940;47.252;8.696;2023-02-28T07:43:00;2.40;83.30
19588;DHT22;9940;47.252;8.696;2023-02-28T07:45:26;2.40;83.10
19588;DHT22;9940;47.252;8.696;2023-02-28T07:47:54;2.40;82.90
19588;DHT22;9940;47.252;8.696;2023-02-28T07:50:22;2.50;82.70
19588;DHT22;9940;47.252;8.696;2023-02-28T07:52:50;2.60;82.50
19588;DHT22;9940;47.252;8.696;2023-02-28T07:55:18;2.60;82.20
19588;DHT22;9940;47.252;8.696;2023-02-28T07:57:43;2.60;82.00
19588;DHT22;9940;47.252;8.696;2023-02-28T08:00:11;2.70;81.80
19588;DHT22;9940;47.252;8.696;2023-02-28T08:02:38;2.70;81.70
19588;DHT22;9940;47.252;8.696;2023-02-28T08:05:04;2.80;81.60
19588;DHT22;9940;47.252;8.696;2023-02-28T08:07:30;2.80;81.40
19588;DHT22;9940;47.252;8.696;2023-02-28T08:09:58;2.80;81.20
19588;DHT22;9940;47.252;8.696;2023-02-28T08:12:24;2.90;81.00
19588;DHT22;9940;47.252;8.696;2023-02-28T08:14:50;2.90;80.70
19588;DHT22;9940;47.252;8.696;2023-02-28T08:17:16;3.00;80.60
19588;DHT22;9940;47.252;8.696;2023-02-28T08:19:45;3.10;80.40
19588;DHT22;9940;47.252;8.696;2023-02-28T08:22:13;3.10;80.20
19588;DHT22;9940;47.252;8.696;2023-02-28T08:24:42;3.20;80.00
19588;DHT22;9940;47.252;8.696;2023-02-28T08:27:10;3.20;79.70
19588;DHT22;9940;47.252;8.696;2023-02-28T08:29:39;3.30;79.50
19588;DHT22;9940;47.252;8.696;2023-02-28T08:32:06;3.30;79.20
19588;DHT22;9940;47.252;8.696;2023-02-28T08:34:32;3.30;79.00
19588;DHT22;9940;47.252;8.696;2023-02-28T08:36:58;3.30;78.80
19588;DHT22;9940;47.252;8.696;2023-02-28T08:39:23;3.30;78.70
19588;DHT22;9940;47.252;8.696;2023-02-28T08:41:49;3.30;78.60
19588;DHT22;9940;47.252;8.696;2023-02-28T08:44:15;3.30;78.50
19588;DHT22;9940;47.252;8.696;2023-02-28T08:46:40;3.30;78.50
19588;DHT22;9940;47.252;8.696;2023-02-28T08:49:09;3.30;78.50
19588;DHT22;9940;47.252;8.696;2023-02-28T08:51:35;3.30;78.40
19588;DHT22;9940;47.252;8.696;2023-02-28T08:54:01;3.40;78.30
19588;DHT22;9940;47.252;8.696;2023-02-28T08:56:29;3.40;78.10
19588;DHT22;9940;47.252;8.696;2023-02-28T08:58:59;3.40;77.80
19588;DHT22;9940;47.252;8.696;2023-02-28T09:01:27;3.50;77.70
19588;DHT22;9940;47.252;8.696;2023-02-28T09:03:57;3.50;77.80
19588;DHT22;9940;47.252;8.696;2023-02-28T09:06:24;3.50;77.40
19588;DHT22;9940;47.252;8.696;2023-02-28T09:08:52;3.50;77.30
19588;DHT22;9940;47.252;8.696;2023-02-28T09:11:19;3.50;77.30
19588;DHT22;9940;47.252;8.696;2023-02-28T09:13:45;3.50;77.20
19588;DHT22;9940;47.252;8.696;2023-02-28T09:16:13;3.50;77.10
19588;DHT22;9940;47.252;8.696;2023-02-28T09:18:40;3.50;77.00
19588;DHT22;9940;47.252;8.696;2023-02-28T09:21:13;3.60;76.70
19588;DHT22;9940;47.252;8.696;2023-02-28T09:23:40;3.60;76.60
19588;DHT22;9940;47.252;8.696;2023-02-28T09:26:06;3.60;76.40
19588;DHT22;9940;47.252;8.696;2023-02-28T09:28:32;3.60;76.20
19588;DHT22;9940;47.252;8.696;2023-02-28T09:30:58;3.70;76.10
19588;DHT22;9940;47.252;8.696;2023-02-28T09:33:25;3.70;75.90
19588;DHT22;9940;47.252;8.696;2023-02-28T09:35:57;3.70;75.80
19588;DHT22;9940;47.252;8.696;2023-02-28T09:38:23;3.70;75.70
19588;DHT22;9940;47.252;8.696;2023-02-28T09:40:55;3.80;75.60
19588;DHT22;9940;47.252;8.696;2023-02-28T09:43:25;3.80;75.40
19588;DHT22;9940;47.252;8.696;2023-02-28T09:45:56;3.90;75.40
19588;DHT22;9940;47.252;8.696;2023-02-28T09:48:33;3.90;75.10
19588;DHT22;9940;47.252;8.696;2023-02-28T09:51:09;3.90;75.00
19588;DHT22;9940;47.252;8.696;2023-02-28T09:53:40;3.90;74.90
19588;DHT22;9940;47.252;8.696;2023-02-28T09:56:50;3.90;74.70
19588;DHT22;9940;47.252;8.696;2023-02-28T09:59:21;4.10;74.50
19588;DHT22;9940;47.252;8.696;2023-02-28T10:12:46;4.20;73.70
19588;DHT22;9940;47.252;8.696;2023-02-28T10:15:16;4.20;73.60
19588;DHT22;9940;47.252;8.696;2023-02-28T10:17:44;4.20;73.50
19588;DHT22;9940;47.252;8.696;2023-02-28T10:20:11;4.20;73.30
19588;DHT22;9940;47.252;8.696;2023-02-28T10:22:53;4.30;73.30
19588;DHT22;9940;47.252;8.696;2023-02-28T10:25:24;4.30;73.10
19588;DHT22;9940;47.252;8.696;2023-02-28T10:27:53;4.40;72.90
19588;DHT22;9940;47.252;8.696;2023-02-28T10:30:19;4.50;72.80
19588;DHT22;9940;47.252;8.696;2023-02-28T10:32:50;4.60;72.70
19588;DHT22;9940;47.252;8.696;2023-02-28T10:35:23;4.60;72.40
19588;DHT22;9940;47.252;8.696;2023-02-28T10:37:53;4.70;72.20
19588;DHT22;9940;47.252;8.696;2023-02-28T10:45:31;4.80;71.90
19588;DHT22;9940;47.252;8.696;2023-02-28T10:48:25;4.80;71.70
19588;DHT22;9940;47.252;8.696;2023-02-28T10:50:52;4.90;71.60
19588;DHT22;9940;47.252;8.696;2023-02-28T11:04:17;5.10;70.80
19588;DHT22;9940;47.252;8.696;2023-02-28T11:06:45;5.10;70.60
19588;DHT22;9940;47.252;8.696;2023-02-28T11:09:35;5.10;70.50
19588;DHT22;9940;47.252;8.696;2023-02-28T11:12:05;5.10;71.30
19588;DHT22;9940;47.252;8.696;2023-02-28T11:14:47;5.10;70.40
19588;DHT22;9940;47.252;8.696;2023-02-28T11:17:26;5.10;70.20
19588;DHT22;9940;47.252;8.696;2023-02-28T11:19:56;5.20;70.20
19588;DHT22;9940;47.252;8.696;2023-02-28T11:22:27;5.20;70.10
19588;DHT22;9940;47.252;8.696;2023-02-28T11:25:00;5.20;70.10
19588;DHT22;9940;47.252;8.696;2023-02-28T11:27:47;5.30;70.00
19588;DHT22;9940;47.252;8.696;2023-02-28T11:33:00;5.30;69.70
19588;DHT22;9940;47.252;8.696;2023-02-28T11:35:36;5.30;69.70
19588;DHT22;9940;47.252;8.696;2023-02-28T11:38:07;5.40;69.60
19588;DHT22;9940;47.252;8.696;2023-02-28T11:41:05;5.40;69.40
19588;DHT22;9940;47.252;8.696;2023-02-28T11:46:06;5.60;69.20
19588;DHT22;9940;47.252;8.696;2023-02-28T11:49:04;5.70;69.00
19588;DHT22;9940;47.252;8.696;2023-02-28T11:59:55;6.00;68.30
19588;DHT22;9940;47.252;8.696;2023-02-28T12:02:32;6.10;68.10
19588;DHT22;9940;47.252;8.696;2023-02-28T12:05:09;6.10;67.70
19588;DHT22;9940;47.252;8.696;2023-02-28T12:07:49;6.20;67.70
19588;DHT22;9940;47.252;8.696;2023-02-28T12:10:28;6.10;67.50
19588;DHT22;9940;47.252;8.696;2023-02-28T12:13:16;6.10;67.50
19588;DHT22;9940;47.252;8.696;2023-02-28T12:19:06;6.10;67.50
19588;DHT22;9940;47.252;8.696;2023-02-28T12:22:18;6.10;67.40
19588;DHT22;9940;47.252;8.696;2023-02-28T12:27:17;6.10;67.30
19588;DHT22;9940;47.252;8.696;2023-02-28T12:30:03;6.10;67.10
19588;DHT22;9940;47.252;8.696;2023-02-28T12:32:42;6.10;67.00
19588;DHT22;9940;47.252;8.696;2023-02-28T12:35:16;6.10;67.00
19588;DHT22;9940;47.252;8.696;2023-02-28T12:37:49;6.00;67.10
19588;DHT22;9940;47.252;8.696;2023-02-28T12:40:23;5.90;67.20
19588;DHT22;9940;47.252;8.696;2023-02-28T12:43:00;5.90;67.30
19588;DHT22;9940;47.252;8.696;2023-02-28T12:48:08;5.80;67.30
19588;DHT22;9940;47.252;8.696;2023-02-28T12:50:38;5.80;67.40
19588;DHT22;9940;47.252;8.696;2023-02-28T12:53:15;5.80;67.40
19588;DHT22;9940;47.252;8.696;2023-02-28T13:09:30;5.50;67.50
19588;DHT22;9940;47.252;8.696;2023-02-28T13:11:57;5.40;67.60
19588;DHT22;9940;47.252;8.696;2023-02-28T13:17:10;5.40;67.80
19588;DHT22;9940;47.252;8.696;2023-02-28T13:27:52;5.30;67.80
19588;DHT22;9940;47.252;8.696;2023-02-28T13:49:31;5.40;67.90
19588;DHT22;9940;47.252;8.696;2023-02-28T14:06:26;5.40;68.00
19588;DHT22;9940;47.252;8.696;2023-02-28T14:11:28;5.30;68.20
19588;DHT22;9940;47.252;8.696;2023-02-28T14:13:54;5.20;68.30
19588;DHT22;9940;47.252;8.696;2023-02-28T14:16:25;5.20;68.30
19588;DHT22;9940;47.252;8.696;2023-02-28T14:19:00;5.10;68.40
19588;DHT22;9940;47.252;8.696;2023-02-28T14:21:38;5.10;68.50
19588;DHT22;9940;47.252;8.696;2023-02-28T14:36:16;5.00;68.90
19588;DHT22;9940;47.252;8.696;2023-02-28T14:38:51;4.90;69.00
19588;DHT22;9940;47.252;8.696;2023-02-28T14:41:39;4.80;69.10
19588;DHT22;9940;47.252;8.696;2023-02-28T14:44:26;4.70;69.10
19588;DHT22;9940;47.252;8.696;2023-02-28T14:46:59;4.70;69.30
19588;DHT22;9940;47.252;8.696;2023-02-28T14:49:44;4.70;69.30
19588;DHT22;9940;47.252;8.696;2023-02-28T14:52:22;4.70;69.40
19588;DHT22;9940;47.252;8.696;2023-02-28T14:55:28;4.70;69.40
19588;DHT22;9940;47.252;8.696;2023-02-28T14:57:55;4.70;69.40
19588;DHT22;9940;47.252;8.696;2023-02-28T15:02:50;4.60;69.50
19588;DHT22;9940;47.252;8.696;2023-02-28T15:07:48;4.50;69.70
19588;DHT22;9940;47.252;8.696;2023-02-28T15:15:17;4.50;70.00
19588;DHT22;9940;47.252;8.696;2023-02-28T15:17:52;4.50;70.00
19588;DHT22;9940;47.252;8.696;2023-02-28T15:20:21;4.50;70.00
19588;DHT22;9940;47.252;8.696;2023-02-28T15:22:50;4.40;70.00
19588;DHT22;9940;47.252;8.696;2023-02-28T15:25:22;4.40;70.10
19588;DHT22;9940;47.252;8.696;2023-02-28T15:27:55;4.40;70.20
19588;DHT22;9940;47.252;8.696;2023-02-28T15:30:28;4.30;71.00
19588;DHT22;9940;47.252;8.696;2023-02-28T15:35:41;4.30;70.50
19588;DHT22;9940;47.252;8.696;2023-02-28T15:40:43;4.20;70.70
19588;DHT22;9940;47.252;8.696;2023-02-28T15:43:18;4.20;70.80
19588;DHT22;9940;47.252;8.696;2023-02-28T15:48:50;4.20;71.00
19588;DHT22;9940;47.252;8.696;2023-02-28T15:51:37;4.10;70.90
19588;DHT22;9940;47.252;8.696;2023-02-28T15:54:08;4.10;71.00
19588;DHT22;9940;47.252;8.696;2023-02-28T15:56:50;4.00;71.00
19588;DHT22;9940;47.252;8.696;2023-02-28T15:59:48;4.00;71.20
19588;DHT22;9940;47.252;8.696;2023-02-28T16:07:40;3.90;71.60
19588;DHT22;9940;47.252;8.696;2023-02-28T16:10:10;3.80;71.50
19588;DHT22;9940;47.252;8.696;2023-02-28T16:12:40;3.80;71.50
19588;DHT22;9940;47.252;8.696;2023-02-28T16:17:41;3.70;71.70
19588;DHT22;9940;47.252;8.696;2023-02-28T16:20:22;3.70;72.00
19588;DHT22;9940;47.252;8.696;2023-02-28T16:22:48;3.70;72.10
19588;DHT22;9940;47.252;8.696;2023-02-28T16:25:15;3.70;72.20
19588;DHT22;9940;47.252;8.696;2023-02-28T16:27:45;3.70;72.30
19588;DHT22;9940;47.252;8.696;2023-02-28T16:30:19;3.60;72.40
19588;DHT22;9940;47.252;8.696;2023-02-28T16:32:45;3.60;72.50
19588;DHT22;9940;47.252;8.696;2023-02-28T16:35:14;3.60;72.70
19588;DHT22;9940;47.252;8.696;2023-02-28T16:37:43;3.60;72.80
19588;DHT22;9940;47.252;8.696;2023-02-28T16:40:14;3.60;72.90
19588;DHT22;9940;47.252;8.696;2023-02-28T16:42:40;3.60;73.00
19588;DHT22;9940;47.252;8.696;2023-02-28T16:45:08;3.60;73.10
19588;DHT22;9940;47.252;8.696;2023-02-28T16:47:36;3.50;73.20
19588;DHT22;9940;47.252;8.696;2023-02-28T16:50:13;3.60;73.30
19588;DHT22;9940;47.252;8.696;2023-02-28T16:52:39;3.60;73.40
19588;DHT22;9940;47.252;8.696;2023-02-28T16:55:04;3.50;73.40
19588;DHT22;9940;47.252;8.696;2023-02-28T16:57:33;3.60;73.60
19588;DHT22;9940;47.252;8.696;2023-02-28T16:59:58;3.50;73.60
19588;DHT22;9940;47.252;8.696;2023-02-28T17:02:26;3.50;73.70
19588;DHT22;9940;47.252;8.696;2023-02-28T17:04:54;3.50;73.90
19588;DHT22;9940;47.252;8.696;2023-02-28T17:07:23;3.50;74.00
19588;DHT22;9940;47.252;8.696;2023-02-28T17:09:48;3.40;74.10
19588;DHT22;9940;47.252;8.696;2023-02-28T17:12:16;3.50;74.30
19588;DHT22;9940;47.252;8.696;2023-02-28T17:14:42;3.40;74.30
19588;DHT22;9940;47.252;8.696;2023-02-28T17:17:17;3.40;74.50
19588;DHT22;9940;47.252;8.696;2023-02-28T17:19:43;3.40;74.60
19588;DHT22;9940;47.252;8.696;2023-02-28T17:22:10;3.40;74.70
19588;DHT22;9940;47.252;8.696;2023-02-28T17:24:35;3.40;74.70
19588;DHT22;9940;47.252;8.696;2023-02-28T17:27:01;3.40;74.80
19588;DHT22;9940;47.252;8.696;2023-02-28T17:29:27;3.30;74.90
19588;DHT22;9940;47.252;8.696;2023-02-28T17:31:53;3.30;75.00
19588;DHT22;9940;47.252;8.696;2023-02-28T17:34:22;3.30;75.10
19588;DHT22;9940;47.252;8.696;2023-02-28T17:36:49;3.30;75.20
19588;DHT22;9940;47.252;8.696;2023-02-28T17:39:16;3.30;75.30
19588;DHT22;9940;47.252;8.696;2023-02-28T17:41:53;3.30;75.40
19588;DHT22;9940;47.252;8.696;2023-02-28T17:44:20;3.30;75.50
19588;DHT22;9940;47.252;8.696;2023-02-28T17:46:46;3.40;75.60
19588;DHT22;9940;47.252;8.696;2023-02-28T17:49:12;3.40;75.70
19588;DHT22;9940;47.252;8.696;2023-02-28T17:51:38;3.40;75.70
19588;DHT22;9940;47.252;8.696;2023-02-28T17:54:03;3.40;75.70
19588;DHT22;9940;47.252;8.696;2023-02-28T17:56:30;3.30;75.70
19588;DHT22;9940;47.252;8.696;2023-02-28T17:58:56;3.30;75.80
19588;DHT22;9940;47.252;8.696;2023-02-28T18:01:25;3.30;75.90
19588;DHT22;9940;47.252;8.696;2023-02-28T18:03:52;3.30;76.00
19588;DHT22;9940;47.252;8.696;2023-02-28T18:06:33;3.30;76.80
19588;DHT22;9940;47.252;8.696;2023-02-28T18:09:00;3.20;76.20
19588;DHT22;9940;47.252;8.696;2023-02-28T18:11:26;3.30;76.30
19588;DHT22;9940;47.252;8.696;2023-02-28T18:14:08;3.30;76.30
19588;DHT22;9940;47.252;8.696;2023-02-28T18:16:33;3.20;76.30
19588;DHT22;9940;47.252;8.696;2023-02-28T18:19:01;3.20;76.30
19588;DHT22;9940;47.252;8.696;2023-02-28T18:21:31;3.20;76.50
19588;DHT22;9940;47.252;8.696;2023-02-28T18:23:57;3.20;76.60
19588;DHT22;9940;47.252;8.696;2023-02-28T18:26:22;3.20;76.60
19588;DHT22;9940;47.252;8.696;2023-02-28T18:28:48;3.20;76.70
19588;DHT22;9940;47.252;8.696;2023-02-28T18:31:16;3.20;76.80
19588;DHT22;9940;47.252;8.696;2023-02-28T18:33:52;3.10;76.90
19588;DHT22;9940;47.252;8.696;2023-02-28T18:36:19;3.10;77.00
19588;DHT22;9940;47.252;8.696;2023-02-28T18:38:46;3.10;77.00
19588;DHT22;9940;47.252;8.696;2023-02-28T18:41:14;3.10;77.20
19588;DHT22;9940;47.252;8.696;2023-02-28T18:43:43;3.00;77.20
19588;DHT22;9940;47.252;8.696;2023-02-28T18:46:14;3.00;77.30
19588;DHT22;9940;47.252;8.696;2023-02-28T18:48:40;3.00;77.50
19588;DHT22;9940;47.252;8.696;2023-02-28T18:51:15;3.00;77.60
19588;DHT22;9940;47.252;8.696;2023-02-28T18:53:42;3.00;77.60
19588;DHT22;9940;47.252;8.696;2023-02-28T18:56:10;3.00;77.60
19588;DHT22;9940;47.252;8.696;2023-02-28T18:58:37;3.00;77.70
19588;DHT22;9940;47.252;8.696;2023-02-28T19:01:03;3.00;78.60
19588;DHT22;9940;47.252;8.696;2023-02-28T19:03:39;3.10;77.90
19588;DHT22;9940;47.252;8.696;2023-02-28T19:06:04;3.00;77.90
19588;DHT22;9940;47.252;8.696;2023-02-28T19:08:32;3.00;78.00
19588;DHT22;9940;47.252;8.696;2023-02-28T19:10:58;3.00;78.00
19588;DHT22;9940;47.252;8.696;2023-02-28T19:13:26;3.00;78.10
19588;DHT22;9940;47.252;8.696;2023-02-28T19:16:00;3.00;78.20
19588;DHT22;9940;47.252;8.696;2023-02-28T19:18:28;3.00;78.20
19588;DHT22;9940;47.252;8.696;2023-02-28T19:20:56;3.00;78.30
19588;DHT22;9940;47.252;8.696;2023-02-28T19:23:23;3.10;78.50
19588;DHT22;9940;47.252;8.696;2023-02-28T19:25:50;3.10;78.50
19588;DHT22;9940;47.252;8.696;2023-02-28T19:28:16;3.10;78.60
19588;DHT22;9940;47.252;8.696;2023-02-28T19:30:46;3.10;78.60
19588;DHT22;9940;47.252;8.696;2023-02-28T19:33:14;3.10;78.70